Time;durP1;ratioP1;P1;durP2;ratioP2;P2;SDS_P1;SDS_P2;PMS_P1;PMS_P2;Temp;Humidity;BMP_temperature;BMP_pressure;BME280_temperature;BME280_humidity;BME280_pressure;Samples;Min_cycle;Max_cycle;Signal;HPM_P1;HPM_P2
2022/01/08 00:02:51;;;;;;;6.88;4.30;;;21.40;65.70;;;;;;7838188;28;20240;-57
2022/01/08 00:06:36;;;;;;;4.95;3.97;;;21.40;65.80;;;;;;7838201;28;20170;-57
2022/01/08 00:10:22;;;;;;;5.72;4.05;;;21.40;65.80;;;;;;7837312;28;20174;-57
2022/01/08 00:14:10;;;;;;;5.63;4.20;;;21.30;65.80;;;;;;7838174;28;20178;-57
2022/01/08 00:17:55;;;;;;;4.72;4.00;;;21.30;65.80;;;;;;7837254;28;20176;-56
2022/01/08 00:21:41;;;;;;;6.20;4.35;;;21.30;65.80;;;;;;7837922;28;20248;-57
2022/01/08 00:25:26;;;;;;;5.13;4.38;;;21.30;65.90;;;;;;7838039;28;20173;-57
2022/01/08 00:29:12;;;;;;;4.15;3.65;;;21.30;65.80;;;;;;7837374;28;20644;-58
2022/01/08 00:32:59;;;;;;;5.07;3.95;;;21.30;65.90;;;;;;7837809;28;20221;-56
2022/01/08 00:36:44;;;;;;;5.75;4.10;;;21.30;65.90;;;;;;7837668;28;20584;-55
2022/01/08 00:40:30;;;;;;;5.30;4.18;;;21.20;65.80;;;;;;7837095;28;20196;-54
2022/01/08 00:44:18;;;;;;;6.97;3.92;;;21.20;65.80;;;;;;7837604;28;20210;-56
2022/01/08 00:48:03;;;;;;;6.15;4.10;;;21.20;65.80;;;;;;7836686;28;20178;-52
2022/01/08 00:51:49;;;;;;;4.68;4.00;;;21.20;65.90;;;;;;7837269;28;20232;-53
2022/01/08 00:55:35;;;;;;;5.47;4.72;;;21.20;65.70;;;;;;7837530;28;20194;-55
2022/01/08 00:59:20;;;;;;;5.15;3.85;;;21.20;65.80;;;;;;7836657;28;20182;-54
2022/01/08 01:03:05;;;;;;;3.95;3.55;;;21.20;65.80;;;;;;7840569;28;20213;-55
2022/01/08 01:06:51;;;;;;;4.35;3.75;;;21.20;65.80;;;;;;7843238;28;20528;-53
2022/01/08 01:10:36;;;;;;;4.97;4.25;;;21.20;65.90;;;;;;7842421;28;20236;-56
2022/01/08 01:14:23;;;;;;;4.82;3.83;;;21.20;65.90;;;;;;7843022;28;20185;-54
2022/01/08 01:18:09;;;;;;;4.70;3.88;;;21.20;65.90;;;;;;7842187;28;20185;-56
2022/01/08 01:21:57;;;;;;;5.00;4.13;;;21.20;65.90;;;;;;7842940;28;20206;-55
2022/01/08 01:25:56;;;;;;;3.95;3.55;;;21.20;65.90;;;;;;7842857;28;20166;-56
2022/01/08 01:49:50;;;;;;;4.68;3.88;;;21.10;66.00;;;;;;7842100;28;20655;-55
2022/01/08 01:53:35;;;;;;;3.80;3.33;;;21.10;66.00;;;;;;7842447;28;20597;-58
2022/01/08 01:57:21;;;;;;;4.03;3.35;;;21.10;66.00;;;;;;7841910;28;20197;-57
2022/01/08 02:01:07;;;;;;;3.58;3.28;;;21.10;66.00;;;;;;7841132;28;20260;-57
2022/01/08 02:04:52;;;;;;;3.33;2.97;;;21.10;66.00;;;;;;7841648;28;20202;-55
2022/01/08 02:08:38;;;;;;;3.58;3.20;;;21.10;66.00;;;;;;7840799;28;20189;-57
2022/01/08 02:12:24;;;;;;;3.30;3.00;;;21.10;66.10;;;;;;7840700;28;20209;-57
2022/01/08 02:16:16;;;;;;;4.88;3.10;;;21.00;66.00;;;;;;7840552;28;20178;-57
2022/01/08 02:20:02;;;;;;;3.90;3.30;;;21.00;66.10;;;;;;7840599;28;20239;-57
2022/01/08 02:23:48;;;;;;;4.32;3.13;;;21.00;66.00;;;;;;7840894;28;20697;-57
2022/01/08 02:27:34;;;;;;;4.00;3.53;;;21.00;66.10;;;;;;7840370;28;20170;-58
2022/01/08 02:31:23;;;;;;;4.40;3.47;;;21.00;66.10;;;;;;7841226;28;20217;-57
2022/01/08 02:35:09;;;;;;;3.65;3.33;;;21.00;66.10;;;;;;7840883;28;20655;-56
2022/01/08 02:38:55;;;;;;;3.30;3.00;;;21.00;66.10;;;;;;7840020;28;20239;-53
2022/01/08 02:42:50;;;;;;;4.25;3.40;;;21.00;66.10;;;;;;7840546;28;20206;-55
2022/01/08 02:46:39;;;;;;;4.50;3.05;;;21.00;66.10;;;;;;7840317;28;20169;-57
2022/01/08 02:50:25;;;;;;;3.45;2.95;;;21.00;66.10;;;;;;7839455;28;20539;-53
2022/01/08 02:54:11;;;;;;;4.07;3.40;;;21.00;66.10;;;;;;7840145;28;20178;-57
2022/01/08 02:57:57;;;;;;;4.05;2.70;;;20.90;66.00;;;;;;7839356;28;20174;-57
2022/01/08 03:01:43;;;;;;;3.63;2.90;;;20.90;66.10;;;;;;7839843;28;20227;-53
2022/01/08 03:05:29;;;;;;;2.97;2.67;;;20.90;66.00;;;;;;7839711;28;20184;-54
2022/01/08 03:09:14;;;;;;;3.20;2.83;;;20.90;66.00;;;;;;7839313;28;20177;-54
2022/01/08 03:13:02;;;;;;;3.38;2.72;;;20.90;66.10;;;;;;7839466;28;20204;-56
2022/01/08 03:16:47;;;;;;;3.17;2.88;;;20.90;66.10;;;;;;7839892;28;20176;-55
2022/01/08 03:20:36;;;;;;;3.63;2.60;;;20.90;66.10;;;;;;7838702;28;20643;-54
2022/01/08 03:24:27;;;;;;;2.80;2.60;;;20.90;66.10;;;;;;7839038;28;20279;-57
2022/01/08 03:28:13;;;;;;;3.25;2.70;;;20.90;66.00;;;;;;7839007;28;20619;-56
2022/01/08 03:31:58;;;;;;;3.42;2.83;;;20.90;66.10;;;;;;7839315;28;20210;-56
2022/01/08 03:35:44;;;;;;;2.85;2.55;;;20.90;66.20;;;;;;7839287;28;20182;-54
2022/01/08 03:39:29;;;;;;;2.72;2.53;;;20.90;66.10;;;;;;7838272;28;20261;-55
2022/01/08 03:43:15;;;;;;;2.90;2.33;;;20.80;66.10;;;;;;7838632;28;20209;-56
2022/01/08 03:51:04;;;;;;;2.65;2.45;;;20.90;66.10;;;;;;7838275;28;20194;-55
2022/01/08 03:54:50;;;;;;;2.75;2.40;;;20.80;66.10;;;;;;7838473;28;20216;-57
2022/01/08 03:58:36;;;;;;;2.95;2.65;;;20.80;66.10;;;;;;7837682;28;20174;-56
2022/01/08 04:02:21;;;;;;;2.38;2.17;;;20.80;66.10;;;;;;7838144;28;20217;-57
2022/01/08 04:06:07;;;;;;;2.78;2.40;;;20.90;66.20;;;;;;7838263;28;20182;-56
2022/01/08 04:09:52;;;;;;;3.03;2.30;;;20.80;67.00;;;;;;7837519;28;20174;-55
2022/01/08 04:13:40;;;;;;;2.50;2.20;;;20.80;66.10;;;;;;7837828;28;20288;-57
2022/01/08 04:17:26;;;;;;;2.35;2.15;;;20.80;66.10;;;;;;7838078;28;20185;-57
2022/01/08 04:21:58;;;;;;;2.25;2.05;;;20.80;66.20;;;;;;7837380;28;20206;-57
2022/01/08 04:25:25;;;;;;;2.35;2.15;;;20.80;66.10;;;;;;7837585;28;20251;-57
2022/01/08 04:29:11;;;;;;;2.08;1.88;;;20.80;66.10;;;;;;7837657;28;20639;-56
2022/01/08 04:32:57;;;;;;;3.88;2.53;;;20.80;66.10;;;;;;7837557;28;20231;-57
2022/01/08 04:36:43;;;;;;;3.95;2.13;;;20.80;66.10;;;;;;7839157;28;20170;-56
2022/01/08 04:40:29;;;;;;;3.75;2.00;;;20.70;66.10;;;;;;7843366;28;20264;-55
2022/01/08 04:44:14;;;;;;;2.05;1.85;;;20.70;66.20;;;;;;7843906;28;20209;-55
2022/01/08 04:48:01;;;;;;;6.10;2.30;;;20.70;66.20;;;;;;7843384;28;20209;-55
2022/01/08 04:51:46;;;;;;;1.88;1.77;;;20.70;66.20;;;;;;7843677;28;20583;-53
2022/01/08 04:55:32;;;;;;;2.38;1.80;;;20.70;66.20;;;;;;7843591;28;20248;-55
2022/01/08 04:59:18;;;;;;;3.25;1.98;;;20.70;66.20;;;;;;7842863;28;20171;-53
2022/01/08 05:03:03;;;;;;;2.30;1.98;;;20.70;66.40;;;;;;7843440;28;20308;-54
2022/01/08 05:06:49;;;;;;;5.07;1.70;;;20.70;66.20;;;;;;7843339;28;20253;-55
2022/01/08 05:10:34;;;;;;;3.22;1.90;;;20.60;66.20;;;;;;7842615;28;20181;-53
2022/01/08 05:14:20;;;;;;;3.15;1.60;;;20.70;66.30;;;;;;7843459;28;20192;-54
2022/01/08 05:18:08;;;;;;;6.65;2.35;;;20.60;66.20;;;;;;7842699;28;20178;-54
2022/01/08 05:21:58;;;;;;;2.00;1.80;;;20.60;66.20;;;;;;7843293;28;20221;-55
2022/01/08 05:25:43;;;;;;;2.33;1.75;;;20.60;66.20;;;;;;7843323;28;20196;-54
2022/01/08 05:29:29;;;;;;;2.63;1.90;;;20.60;66.20;;;;;;7842531;28;20639;-55
2022/01/08 05:33:15;;;;;;;3.53;1.80;;;20.60;66.40;;;;;;7841286;28;20289;-55
2022/01/08 05:37:00;;;;;;;1.88;1.73;;;20.60;66.30;;;;;;7840713;28;20665;-55
2022/01/08 05:40:46;;;;;;;2.05;1.88;;;20.60;66.40;;;;;;7839728;28;20203;-56
2022/01/08 05:44:32;;;;;;;2.03;1.77;;;20.50;66.40;;;;;;7840341;28;20213;-54
2022/01/08 05:48:17;;;;;;;2.05;1.83;;;20.50;66.40;;;;;;7839297;28;20177;-57
2022/01/08 05:52:03;;;;;;;4.20;2.10;;;20.50;66.40;;;;;;7840110;28;20346;-55
2022/01/08 05:55:49;;;;;;;2.20;2.00;;;20.40;66.40;;;;;;7840023;28;20558;-56
2022/01/08 05:59:35;;;;;;;6.30;1.92;;;20.40;66.50;;;;;;7839283;28;20174;-56
2022/01/08 06:03:20;;;;;;;2.17;1.88;;;20.40;66.40;;;;;;7839747;28;20747;-55
2022/01/08 06:07:06;;;;;;;3.78;2.00;;;20.40;66.60;;;;;;7839904;28;20542;-56
2022/01/08 06:10:51;;;;;;;3.67;1.85;;;20.30;66.50;;;;;;7839011;28;20255;-55
2022/01/08 06:14:37;;;;;;;4.13;2.28;;;20.30;66.50;;;;;;7834291;28;20193;-57
2022/01/08 06:18:22;;;;;;;2.78;2.30;;;20.30;66.60;;;;;;7825284;28;20243;-57
2022/01/08 06:22:08;;;;;;;4.53;2.00;;;20.30;66.70;;;;;;7839454;28;20588;-55
2022/01/08 06:25:53;;;;;;;2.83;2.00;;;20.30;66.70;;;;;;7812010;28;20186;-57
2022/01/08 06:29:39;;;;;;;2.70;2.25;;;20.30;66.70;;;;;;7815623;28;20186;-57
2022/01/08 06:33:24;;;;;;;2.05;1.88;;;20.30;66.70;;;;;;7805736;28;996818;-57
2022/01/08 06:37:10;;;;;;;2.30;2.10;;;20.20;66.80;;;;;;7840937;28;20744;-58
2022/01/08 06:40:56;;;;;;;2.33;2.10;;;20.20;66.80;;;;;;7839712;28;20205;-55
2022/01/08 06:44:41;;;;;;;3.00;1.95;;;20.20;66.80;;;;;;7840317;28;20645;-55
2022/01/08 06:48:27;;;;;;;2.60;2.10;;;20.20;66.90;;;;;;7839948;28;20287;-58
2022/01/08 06:52:12;;;;;;;2.45;2.25;;;20.10;66.80;;;;;;7840403;28;20198;-56
2022/01/08 06:55:58;;;;;;;2.53;1.90;;;20.10;66.90;;;;;;7840362;28;20188;-54
2022/01/08 06:59:43;;;;;;;11.10;2.40;;;20.10;66.80;;;;;;7838860;28;20174;-56
2022/01/08 07:03:29;;;;;;;13.90;2.70;;;20.10;67.00;;;;;;7840056;28;20209;-57
2022/01/08 07:07:14;;;;;;;4.72;2.90;;;20.10;67.90;;;;;;7840298;28;20174;-53
2022/01/08 07:11:00;;;;;;;9.40;2.30;;;20.10;67.00;;;;;;7839268;28;20201;-57
2022/01/08 07:14:45;;;;;;;3.75;2.35;;;20.10;67.10;;;;;;7839723;28;20186;-54
2022/01/08 07:18:31;;;;;;;6.43;2.72;;;20.10;67.10;;;;;;7838923;28;20260;-56
2022/01/08 07:22:16;;;;;;;2.75;2.35;;;20.00;67.10;;;;;;7839321;28;20241;-56
2022/01/08 07:26:02;;;;;;;6.28;2.63;;;20.00;67.10;;;;;;7839690;28;20181;-56
2022/01/08 07:29:47;;;;;;;3.40;2.53;;;20.00;67.10;;;;;;7838622;28;20177;-53
2022/01/08 07:33:33;;;;;;;6.55;3.20;;;20.00;67.10;;;;;;7839059;28;20221;-58
2022/01/08 07:37:18;;;;;;;5.03;2.30;;;19.90;67.20;;;;;;7839023;28;20190;-57
2022/01/08 07:41:04;;;;;;;5.80;2.42;;;19.90;67.20;;;;;;7838169;28;20220;-58
2022/01/08 07:44:49;;;;;;;5.35;3.03;;;19.90;67.20;;;;;;7839002;28;20289;-57
2022/01/08 07:48:35;;;;;;;4.95;2.30;;;19.90;67.20;;;;;;7838011;28;20178;-57
2022/01/08 07:52:21;;;;;;;34.10;3.47;;;19.80;67.10;;;;;;7838533;28;20292;-55
2022/01/08 07:56:06;;;;;;;20.42;3.45;;;19.90;67.20;;;;;;7838565;28;20189;-57
2022/01/08 07:59:52;;;;;;;38.95;3.55;;;19.90;67.00;;;;;;7837823;28;20618;-55
2022/01/08 08:03:37;;;;;;;24.25;3.53;;;19.90;67.30;;;;;;7838357;28;20296;-58
2022/01/08 08:07:36;;;;;;;36.97;3.90;;;19.90;67.20;;;;;;7838295;28;20174;-57
2022/01/08 08:11:22;;;;;;;66.28;5.45;;;19.90;66.90;;;;;;7840778;28;20201;-53
2022/01/08 08:15:09;;;;;;;64.78;5.82;;;19.90;67.00;;;;;;7838169;28;20174;-58
2022/01/08 08:18:54;;;;;;;67.75;7.03;;;19.90;67.40;;;;;;7837439;28;20597;-57
2022/01/08 08:22:40;;;;;;;64.38;6.53;;;19.80;67.70;;;;;;7838006;28;20243;-58
2022/01/08 08:26:25;;;;;;;58.22;5.53;;;19.90;67.90;;;;;;7837941;28;20666;-56
2022/01/08 08:30:11;;;;;;;38.63;5.10;;;19.80;68.10;;;;;;7837323;28;20209;-58
2022/01/08 08:33:57;;;;;;;90.20;6.90;;;19.80;68.10;;;;;;7838395;28;20224;-56
2022/01/08 08:37:42;;;;;;;67.80;5.97;;;19.70;68.10;;;;;;7837106;28;20249;-56
2022/01/08 08:41:28;;;;;;;48.47;4.90;;;19.70;68.20;;;;;;7837773;28;20197;-58
2022/01/08 08:45:13;;;;;;;58.92;6.50;;;19.60;68.10;;;;;;7837919;28;20697;-55
2022/01/08 08:48:59;;;;;;;55.42;4.95;;;19.70;68.10;;;;;;7837333;28;20174;-52
2022/01/08 08:52:44;;;;;;;27.75;5.35;;;19.60;68.10;;;;;;7837964;28;20263;-55
2022/01/08 08:56:30;;;;;;;41.20;3.90;;;19.70;66.80;;;;;;7838081;28;20265;-54
2022/01/08 09:00:16;;;;;;;60.60;5.18;;;19.60;66.70;;;;;;7837146;28;20182;-51
2022/01/08 09:04:02;;;;;;;47.80;5.03;;;19.60;67.50;;;;;;7837484;28;20214;-52
2022/01/08 09:07:47;;;;;;;46.15;5.20;;;19.60;67.60;;;;;;7836744;28;20182;-52
2022/01/08 09:11:34;;;;;;;39.42;4.40;;;19.60;67.80;;;;;;7837367;28;20243;-53
2022/01/08 09:15:23;;;;;;;49.58;4.47;;;19.60;68.00;;;;;;7837336;28;20182;-53
2022/01/08 09:19:09;;;;;;;22.38;3.50;;;19.50;68.40;;;;;;7836585;28;20186;-53
2022/01/08 09:22:56;;;;;;;38.88;6.07;;;19.50;68.10;;;;;;7838632;28;20217;-51
2022/01/08 09:26:41;;;;;;;55.75;11.43;;;19.50;67.90;;;;;;7842977;28;20586;-53
2022/01/08 09:30:27;;;;;;;50.67;12.57;;;19.50;68.20;;;;;;7842073;28;20234;-52
2022/01/08 09:34:13;;;;;;;54.38;12.60;;;19.50;68.60;;;;;;7842637;28;20189;-57
2022/01/08 09:37:58;;;;;;;46.50;10.40;;;19.50;68.70;;;;;;7841885;28;20170;-54
2022/01/08 09:41:44;;;;;;;47.22;10.77;;;19.40;68.50;;;;;;7842313;28;20200;-56
2022/01/08 09:45:30;;;;;;;41.28;10.77;;;19.40;68.60;;;;;;7842661;28;20227;-52
2022/01/08 09:49:15;;;;;;;42.58;9.45;;;19.40;68.50;;;;;;7841557;28;20177;-54
2022/01/08 09:53:01;;;;;;;36.67;9.50;;;19.40;68.60;;;;;;7842104;28;20216;-54
2022/01/08 09:56:46;;;;;;;40.67;8.32;;;19.30;68.60;;;;;;7842154;28;20236;-54
2022/01/08 10:00:34;;;;;;;29.77;8.77;;;19.30;68.70;;;;;;7841238;28;20291;-56
2022/01/08 10:04:24;;;;;;;27.27;7.75;;;19.30;68.70;;;;;;7841908;28;20679;-56
2022/01/08 10:08:14;;;;;;;30.15;7.75;;;19.30;68.70;;;;;;7841297;28;20167;-56
2022/01/08 10:12:00;;;;;;;24.55;8.13;;;19.20;68.70;;;;;;7842099;28;20255;-56
2022/01/08 10:19:50;;;;;;;19.02;6.72;;;19.20;68.70;;;;;;7841022;28;20826;-56
2022/01/08 10:23:35;;;;;;;27.13;7.32;;;19.20;68.70;;;;;;7841322;28;20760;-58
2022/01/08 10:27:35;;;;;;;28.90;7.47;;;19.20;68.70;;;;;;7841306;28;20200;-57
2022/01/08 10:31:34;;;;;;;19.55;6.25;;;19.20;68.70;;;;;;7841013;28;20354;-57
2022/01/08 10:35:21;;;;;;;22.75;6.53;;;19.20;68.80;;;;;;7822129;28;20670;-58
2022/01/08 10:39:17;;;;;;;22.05;6.70;;;19.10;68.70;;;;;;7840351;28;20170;-57
2022/01/08 10:43:16;;;;;;;23.55;6.30;;;19.10;68.70;;;;;;7840819;28;20572;-58
2022/01/08 10:47:05;;;;;;;26.60;6.18;;;19.00;68.70;;;;;;7840706;28;20262;-56
2022/01/08 10:50:50;;;;;;;14.55;6.28;;;19.10;68.70;;;;;;7839998;28;20202;-54
2022/01/08 10:54:44;;;;;;;16.63;6.00;;;19.10;68.70;;;;;;7840419;28;20217;-55
2022/01/08 10:58:43;;;;;;;18.60;5.78;;;19.10;68.70;;;;;;7839852;28;20183;-55
2022/01/08 11:02:29;;;;;;;13.88;5.97;;;19.00;69.70;;;;;;7840001;28;20228;-56
2022/01/08 11:06:14;;;;;;;18.63;7.43;;;19.00;68.80;;;;;;7840000;28;20166;-57
2022/01/08 11:10:07;;;;;;;14.27;5.65;;;19.00;68.80;;;;;;7839183;28;20166;-55
2022/01/08 11:13:53;;;;;;;16.00;5.70;;;19.00;68.80;;;;;;7839717;28;20812;-53
2022/01/08 11:17:41;;;;;;;14.48;6.05;;;19.00;68.90;;;;;;7839100;28;20182;-55
2022/01/08 11:21:32;;;;;;;9.38;4.97;;;18.90;68.80;;;;;;7839549;28;20225;-54
2022/01/08 11:25:23;;;;;;;10.43;5.13;;;18.90;68.90;;;;;;7839478;28;20694;-56
2022/01/08 11:29:10;;;;;;;13.50;5.05;;;18.90;68.80;;;;;;7838737;28;20185;-56
2022/01/08 11:33:01;;;;;;;9.15;5.03;;;18.90;68.90;;;;;;7839060;28;20217;-56
2022/01/08 11:36:49;;;;;;;11.73;4.30;;;18.90;69.00;;;;;;7839322;28;20185;-56
2022/01/08 11:40:37;;;;;;;12.77;5.03;;;18.80;68.90;;;;;;7838084;28;20265;-55
2022/01/08 11:44:26;;;;;;;12.35;5.57;;;18.80;69.00;;;;;;7838861;28;20245;-57
2022/01/08 11:48:12;;;;;;;11.07;4.25;;;18.90;69.10;;;;;;7838454;28;20178;-55
2022/01/08 11:52:17;;;;;;;13.88;4.45;;;18.90;69.10;;;;;;7838925;28;20297;-54
2022/01/08 11:56:05;;;;;;;14.32;5.13;;;18.90;69.10;;;;;;7805642;28;20708;-56
2022/01/08 11:59:57;;;;;;;10.93;4.50;;;18.90;69.10;;;;;;7820489;28;20166;-55
2022/01/08 12:03:51;;;;;;;13.32;4.57;;;18.90;69.20;;;;;;7838727;28;20217;-56
2022/01/08 12:07:47;;;;;;;11.20;4.70;;;18.80;69.10;;;;;;7837822;28;20177;-55
2022/01/08 12:11:54;;;;;;;9.48;4.30;;;18.90;69.20;;;;;;7838713;28;20205;-53
2022/01/08 12:15:39;;;;;;;11.52;4.13;;;18.90;69.10;;;;;;7837962;28;20178;-57
2022/01/08 12:19:29;;;;;;;9.63;4.25;;;18.90;69.10;;;;;;7837527;28;20186;-57
2022/01/08 12:23:37;;;;;;;6.93;3.60;;;19.00;69.10;;;;;;7837961;28;20710;-55
2022/01/08 12:27:35;;;;;;;8.45;3.83;;;18.90;69.00;;;;;;7838500;28;20173;-57
2022/01/08 12:31:36;;;;;;;12.55;4.53;;;19.00;69.10;;;;;;7837883;28;20209;-57
2022/01/08 12:35:28;;;;;;;9.85;4.05;;;19.00;68.90;;;;;;7837954;28;20195;-57
2022/01/08 12:39:13;;;;;;;9.25;4.10;;;19.10;69.00;;;;;;7837307;28;20647;-57
2022/01/08 12:42:59;;;;;;;9.80;3.65;;;19.20;68.80;;;;;;7837595;28;20564;-57
2022/01/08 12:46:44;;;;;;;9.40;4.20;;;19.20;68.70;;;;;;7837686;28;20194;-57
2022/01/08 12:50:42;;;;;;;15.88;3.85;;;19.30;68.70;;;;;;7836848;28;20186;-57
2022/01/08 12:54:28;;;;;;;7.78;3.30;;;19.30;68.50;;;;;;7837811;28;20186;-56
2022/01/08 12:58:16;;;;;;;8.05;3.78;;;19.40;68.30;;;;;;7838924;28;20193;-57
2022/01/08 13:02:06;;;;;;;8.40;3.30;;;19.40;68.20;;;;;;7843662;28;20201;-55
2022/01/08 13:05:52;;;;;;;6.50;3.45;;;19.50;68.20;;;;;;7843689;28;20177;-56
2022/01/08 13:09:37;;;;;;;10.05;3.75;;;19.50;68.00;;;;;;7842782;28;20178;-56
2022/01/08 13:13:27;;;;;;;10.43;3.47;;;19.60;68.00;;;;;;7843304;28;20687;-56
2022/01/08 13:17:15;;;;;;;13.05;3.90;;;19.60;67.90;;;;;;7832999;28;20690;-56
2022/01/08 13:21:03;;;;;;;5.10;3.35;;;19.70;67.80;;;;;;7811435;28;20195;-56
2022/01/08 13:24:50;;;;;;;8.63;2.85;;;19.80;67.70;;;;;;7812057;28;20214;-56
2022/01/08 13:28:35;;;;;;;11.20;3.63;;;19.80;67.60;;;;;;7811241;28;20723;-56
2022/01/08 13:32:23;;;;;;;15.05;3.45;;;19.90;67.50;;;;;;7813610;28;20632;-55
2022/01/08 13:36:12;;;;;;;8.35;3.38;;;20.00;67.50;;;;;;7811889;28;20182;-57
2022/01/08 13:40:06;;;;;;;7.05;3.42;;;20.10;67.60;;;;;;7810951;28;20201;-56
2022/01/08 13:43:55;;;;;;;11.45;3.17;;;20.10;67.30;;;;;;7811376;28;20289;-56
2022/01/08 13:47:47;;;;;;;9.48;3.08;;;20.10;67.20;;;;;;7810691;28;20171;-57
2022/01/08 13:51:36;;;;;;;18.23;3.35;;;20.20;67.20;;;;;;7811425;28;20194;-56
2022/01/08 13:55:33;;;;;;;10.52;3.33;;;20.20;67.10;;;;;;7811530;28;20273;-53
2022/01/08 13:59:19;;;;;;;11.98;3.05;;;20.30;67.00;;;;;;7810497;28;20558;-55
2022/01/08 14:03:29;;;;;;;12.68;3.33;;;20.30;66.80;;;;;;7810786;28;20249;-55
2022/01/08 14:07:14;;;;;;;7.78;3.38;;;20.30;66.80;;;;;;7810960;28;20584;-57
2022/01/08 14:11:03;;;;;;;5.97;3.47;;;20.40;66.70;;;;;;7809798;28;20198;-57
2022/01/08 14:14:50;;;;;;;8.38;3.28;;;20.40;66.70;;;;;;7810869;28;20220;-57
2022/01/08 14:18:37;;;;;;;6.57;3.03;;;20.40;66.60;;;;;;7810355;28;20190;-56
2022/01/08 14:22:23;;;;;;;7.93;3.20;;;20.50;66.50;;;;;;7810398;28;20211;-53
2022/01/08 14:26:24;;;;;;;10.00;3.33;;;20.50;66.40;;;;;;7810513;28;20265;-61
2022/01/08 14:30:12;;;;;;;13.73;3.70;;;20.60;66.20;;;;;;7827678;28;20196;-57
2022/01/08 14:34:07;;;;;;;16.90;4.20;;;20.60;65.90;;;;;;7841323;28;20572;-58
2022/01/08 14:38:01;;;;;;;15.75;3.90;;;20.70;65.80;;;;;;7840134;28;20178;-56
2022/01/08 14:41:47;;;;;;;25.27;4.32;;;20.80;66.30;;;;;;7828942;28;20745;-56
2022/01/08 14:45:38;;;;;;;15.32;4.10;;;20.80;65.30;;;;;;7840328;28;20210;-55
2022/01/08 14:49:24;;;;;;;14.40;4.25;;;20.90;64.80;;;;;;7839888;28;20224;-56
2022/01/08 14:53:10;;;;;;;18.77;4.00;;;21.00;64.60;;;;;;7840385;28;20584;-57
2022/01/08 14:56:56;;;;;;;12.23;4.60;;;21.00;64.50;;;;;;7840507;28;20295;-56
2022/01/08 15:00:42;;;;;;;6.70;3.95;;;21.10;64.50;;;;;;7839552;28;20744;-52
2022/01/08 15:04:28;;;;;;;10.77;4.10;;;21.20;64.50;;;;;;7840020;28;20833;-52
2022/01/08 15:08:13;;;;;;;14.57;3.83;;;21.30;64.50;;;;;;7839210;28;20548;-54
2022/01/08 15:11:59;;;;;;;9.50;3.75;;;21.40;64.40;;;;;;7839755;28;20576;-55
2022/01/08 15:15:44;;;;;;;11.60;4.07;;;21.50;64.40;;;;;;7839711;28;20182;-52
2022/01/08 15:19:31;;;;;;;17.77;3.75;;;21.70;64.20;;;;;;7838898;28;20191;-56
2022/01/08 15:23:16;;;;;;;14.63;3.65;;;21.70;64.10;;;;;;7839016;28;20198;-51
2022/01/08 15:27:02;;;;;;;20.58;4.28;;;21.80;64.40;;;;;;7839417;28;20209;-53
2022/01/08 15:30:48;;;;;;;21.45;3.97;;;21.90;64.10;;;;;;7838421;28;20241;-56
2022/01/08 15:34:33;;;;;;;22.02;3.75;;;22.00;63.80;;;;;;7839285;28;20182;-54
2022/01/08 15:38:19;;;;;;;15.98;3.42;;;22.00;63.80;;;;;;7838373;28;20185;-53
2022/01/08 15:42:05;;;;;;;12.45;3.65;;;22.10;63.80;;;;;;7868180;28;20243;-56
2022/01/08 15:45:50;;;;;;;11.13;3.00;;;22.10;63.80;;;;;;7870249;28;20208;-55
2022/01/08 15:49:36;;;;;;;15.82;3.65;;;22.10;63.60;;;;;;7868902;28;20189;-56
2022/01/08 15:53:22;;;;;;;11.63;3.42;;;22.10;63.50;;;;;;7869474;28;20239;-51
2022/01/08 15:57:07;;;;;;;13.57;7.07;;;22.10;63.60;;;;;;7869531;28;20231;-55
2022/01/08 16:00:54;;;;;;;16.30;7.30;;;22.20;62.40;;;;;;7869217;28;20194;-57
2022/01/08 16:04:39;;;;;;;23.85;10.02;;;22.00;61.90;;;;;;7869846;28;20209;-56
2022/01/08 16:08:25;;;;;;;18.13;10.02;;;21.90;63.00;;;;;;7869060;28;20211;-57
2022/01/08 16:12:11;;;;;;;15.18;9.65;;;21.90;63.10;;;;;;7854523;28;20190;-56
2022/01/08 16:15:56;;;;;;;19.23;10.20;;;22.10;63.00;;;;;;7838285;28;20643;-56
2022/01/08 16:19:41;;;;;;;12.32;8.60;;;22.20;63.10;;;;;;7837263;28;20170;-55
2022/01/08 16:23:27;;;;;;;14.57;8.80;;;22.30;63.10;;;;;;7837999;28;20739;-57
2022/01/08 16:27:13;;;;;;;19.33;9.38;;;22.30;63.20;;;;;;7837852;28;20255;-57
2022/01/08 16:30:58;;;;;;;22.45;9.18;;;22.40;64.20;;;;;;7836398;28;20288;-55
2022/01/08 16:34:43;;;;;;;14.32;9.00;;;22.70;65.80;;;;;;7836845;28;20316;-56
2022/01/08 16:38:29;;;;;;;16.80;8.30;;;22.70;62.70;;;;;;7837139;28;20184;-57
2022/01/08 16:42:15;;;;;;;15.00;7.93;;;22.90;65.30;;;;;;7837340;28;20284;-57
2022/01/08 16:46:02;;;;;;;11.15;7.40;;;23.10;65.70;;;;;;7837705;28;20174;-58
2022/01/08 16:49:48;;;;;;;17.70;8.23;;;23.50;65.70;;;;;;7836940;28;20174;-55
2022/01/08 16:53:38;;;;;;;13.23;7.53;;;23.70;65.50;;;;;;7837557;28;20204;-57
2022/01/08 16:57:23;;;;;;;14.35;7.28;;;24.00;65.70;;;;;;7837703;28;20177;-54
2022/01/08 17:01:09;;;;;;;15.07;6.80;;;24.30;65.50;;;;;;7836973;28;20202;-52
2022/01/08 17:04:54;;;;;;;11.80;6.35;;;24.50;65.40;;;;;;7837405;28;20209;-56
2022/01/08 17:08:44;;;;;;;8.73;5.97;;;24.60;65.30;;;;;;7836594;28;20170;-53
2022/01/08 17:12:29;;;;;;;10.25;5.43;;;24.80;65.20;;;;;;7837265;28;20678;-53
2022/01/08 17:16:15;;;;;;;18.85;5.47;;;24.90;65.10;;;;;;7837227;28;20594;-55
2022/01/08 17:20:01;;;;;;;26.00;6.30;;;24.90;65.50;;;;;;7834395;28;20228;-55
2022/01/08 17:23:46;;;;;;;21.67;5.60;;;24.90;66.70;;;;;;7835884;28;20581;-54
2022/01/08 17:27:32;;;;;;;35.88;5.80;;;25.00;67.20;;;;;;7835557;28;20235;-53
2022/01/08 17:31:17;;;;;;;14.35;5.13;;;25.00;67.40;;;;;;7835614;28;20336;-54
2022/01/08 17:35:04;;;;;;;18.40;5.40;;;25.10;67.60;;;;;;7836696;28;20666;-53
2022/01/08 17:38:50;;;;;;;13.32;5.22;;;25.10;67.90;;;;;;7835988;28;20758;-56
2022/01/08 17:42:36;;;;;;;9.43;4.55;;;25.10;68.10;;;;;;7836932;28;20210;-55
2022/01/08 17:46:22;;;;;;;15.35;4.80;;;25.10;68.40;;;;;;7841951;28;20185;-54
2022/01/08 17:50:08;;;;;;;10.32;5.25;;;25.00;68.50;;;;;;7841653;28;20181;-55
2022/01/08 17:53:55;;;;;;;14.85;4.28;;;25.00;68.60;;;;;;7842512;28;20202;-55
2022/01/08 17:57:40;;;;;;;20.52;4.82;;;25.00;68.80;;;;;;7842083;28;20193;-55
2022/01/08 18:01:26;;;;;;;9.23;4.20;;;25.00;69.00;;;;;;7841870;28;20229;-55
2022/01/08 18:05:12;;;;;;;15.05;4.32;;;25.00;69.10;;;;;;7841688;28;20209;-55
2022/01/08 18:08:58;;;;;;;8.02;3.92;;;24.90;69.20;;;;;;7840943;28;20178;-55
2022/01/08 18:12:44;;;;;;;10.60;4.15;;;24.90;69.40;;;;;;7841450;28;20205;-54
2022/01/08 18:16:29;;;;;;;11.88;3.55;;;24.80;69.40;;;;;;7841453;28;20185;-53
2022/01/08 18:20:18;;;;;;;9.13;3.92;;;24.80;69.50;;;;;;7841042;28;20231;-56
2022/01/08 18:24:05;;;;;;;8.07;3.00;;;24.70;69.50;;;;;;7840974;28;20288;-56
2022/01/08 18:27:51;;;;;;;7.40;3.50;;;24.60;69.60;;;;;;7840394;28;20202;-55
2022/01/08 18:31:36;;;;;;;7.38;3.00;;;24.50;69.70;;;;;;7840819;28;20710;-57
2022/01/08 18:35:24;;;;;;;9.65;3.22;;;24.50;69.70;;;;;;7841019;28;20591;-56
2022/01/08 18:39:10;;;;;;;9.20;3.22;;;24.40;69.70;;;;;;7839998;28;20186;-57
2022/01/08 18:42:56;;;;;;;13.82;3.42;;;24.30;69.80;;;;;;7840623;28;20761;-57
2022/01/08 18:46:42;;;;;;;8.40;3.13;;;24.30;69.80;;;;;;7840633;28;20265;-57
2022/01/08 18:50:28;;;;;;;8.30;3.00;;;24.20;69.90;;;;;;7839757;28;20185;-57
2022/01/08 18:54:13;;;;;;;6.25;3.08;;;24.10;70.00;;;;;;7840303;28;20181;-58
2022/01/08 18:57:59;;;;;;;4.28;2.67;;;24.00;69.90;;;;;;7838889;28;20182;-57
2022/01/08 19:01:44;;;;;;;5.45;2.83;;;23.90;70.00;;;;;;7840643;28;20201;-55
2022/01/08 19:05:30;;;;;;;6.10;2.72;;;23.90;70.10;;;;;;7839921;28;20204;-54
2022/01/08 19:09:15;;;;;;;9.48;2.70;;;23.80;70.00;;;;;;7839323;28;20178;-57
2022/01/08 19:13:01;;;;;;;4.57;2.80;;;23.70;70.00;;;;;;7840082;28;20206;-55
2022/01/08 19:16:49;;;;;;;7.78;3.20;;;23.60;71.00;;;;;;7840392;28;20174;-54
2022/01/08 19:20:34;;;;;;;12.68;3.25;;;23.60;70.10;;;;;;7821996;28;20196;-55
2022/01/08 19:24:20;;;;;;;15.23;3.00;;;23.50;70.20;;;;;;7839642;28;20213;-56
2022/01/08 19:28:07;;;;;;;5.22;2.65;;;23.40;70.10;;;;;;7838868;28;20201;-53
2022/01/08 19:31:52;;;;;;;12.25;4.70;;;23.40;70.10;;;;;;7839273;28;20711;-53
2022/01/08 19:35:39;;;;;;;11.43;5.80;;;23.30;70.10;;;;;;7838934;28;20550;-52
2022/01/08 19:39:24;;;;;;;16.58;5.68;;;23.20;70.20;;;;;;7838585;28;20178;-55
2022/01/08 19:43:10;;;;;;;28.80;5.13;;;23.10;69.90;;;;;;7838940;28;20213;-54
2022/01/08 19:46:55;;;;;;;29.33;6.65;;;23.00;70.20;;;;;;7838885;28;20170;-54
2022/01/08 19:50:41;;;;;;;20.48;5.28;;;22.90;70.50;;;;;;7807195;28;20203;-54
2022/01/08 19:54:27;;;;;;;19.98;5.35;;;22.90;70.20;;;;;;7807789;28;20240;-54
2022/01/08 19:58:12;;;;;;;31.73;5.65;;;22.90;70.50;;;;;;7802481;28;20240;-57
2022/01/08 20:01:58;;;;;;;55.22;5.95;;;22.80;71.00;;;;;;7807343;28;20198;-54